createdAt,value
2018-05-25T00:00:08.994Z,18.40
2018-05-25T00:02:37.520Z,19.07
2018-05-25T00:05:06.531Z,20.33
2018-05-25T00:07:34.719Z,19.43
2018-05-25T00:10:03.961Z,17.77
2018-05-25T00:12:32.911Z,19.33
2018-05-25T00:15:01.613Z,18.57
2018-05-25T00:17:30.750Z,18.93
2018-05-25T00:20:00.030Z,18.90
2018-05-25T00:22:28.991Z,18.27
2018-05-25T00:24:58.010Z,19.27
2018-05-25T00:27:27.163Z,18.53
2018-05-25T00:29:56.422Z,20.77
2018-05-25T00:32:25.572Z,19.30
2018-05-25T00:34:54.829Z,21.40
2018-05-25T00:37:23.526Z,21.63
2018-05-25T00:39:52.495Z,18.33
2018-05-25T00:42:20.686Z,19.27
2018-05-25T00:44:49.140Z,19.70
2018-05-25T00:47:17.770Z,19.73
2018-05-25T00:49:46.297Z,20.83
2018-05-25T00:52:15.439Z,21.57
2018-05-25T00:54:51.704Z,20.67
2018-05-25T00:57:20.215Z,22.07
2018-05-25T00:59:50.103Z,20.63
2018-05-25T01:02:20.174Z,21.77
2018-05-25T01:04:48.836Z,22.47
2018-05-25T01:07:16.990Z,22.47
2018-05-25T01:09:46.190Z,21.63
2018-05-25T01:12:14.830Z,20.60
2018-05-25T01:14:43.356Z,21.20
2018-05-25T01:17:12.185Z,22.20
2018-05-25T01:19:40.826Z,23.53
2018-05-25T01:22:09.247Z,21.93
2018-05-25T01:24:37.427Z,21.17
2018-05-25T01:27:06.599Z,24.27
2018-05-25T01:29:36.565Z,21.57
2018-05-25T01:32:05.194Z,22.80
2018-05-25T01:34:33.419Z,20.70
2018-05-25T01:37:02.040Z,22.10
2018-05-25T01:39:30.601Z,20.87
2018-05-25T01:41:58.753Z,22.13
2018-05-25T01:44:28.578Z,22.07
2018-05-25T01:46:57.938Z,24.10
2018-05-25T01:49:26.438Z,23.10
2018-05-25T01:51:54.630Z,22.90
2018-05-25T01:54:22.862Z,21.10
2018-05-25T01:56:51.322Z,24.43
2018-05-25T01:59:20.555Z,22.03
2018-05-25T02:01:49.731Z,24.70
2018-05-25T02:04:18.362Z,21.47
2018-05-25T02:06:46.783Z,22.17
2018-05-25T02:09:16.551Z,21.47
2018-05-25T02:11:44.738Z,21.73
2018-05-25T02:14:13.195Z,21.63
2018-05-25T02:16:41.587Z,22.37
2018-05-25T02:19:09.774Z,20.77
2018-05-25T02:21:37.962Z,21.70
2018-05-25T02:24:06.922Z,22.67
2018-05-25T02:26:35.406Z,22.60
2018-05-25T02:29:03.574Z,23.93
2018-05-25T02:31:32.875Z,21.17
2018-05-25T02:34:01.807Z,21.70
2018-05-25T02:36:30.959Z,23.80
2018-05-25T02:38:59.566Z,20.17
2018-05-25T02:41:28.231Z,23.10
2018-05-25T02:43:56.498Z,23.60
2018-05-25T02:46:24.686Z,24.10
2018-05-25T02:48:52.950Z,23.00
2018-05-25T02:51:21.363Z,22.37
2018-05-25T02:53:49.783Z,23.20
2018-05-25T02:56:19.739Z,23.20
2018-05-25T02:58:47.923Z,24.40
2018-05-25T03:01:18.630Z,23.27
2018-05-25T03:03:47.563Z,21.60
2018-05-25T03:06:16.550Z,24.00
2018-05-25T03:08:45.114Z,22.07
2018-05-25T03:11:13.569Z,25.43
2018-05-25T03:13:41.737Z,24.50
2018-05-25T03:16:09.911Z,24.97
2018-05-25T03:18:39.144Z,23.27
2018-05-25T03:21:09.133Z,26.30
2018-05-25T03:23:37.458Z,26.53
2018-05-25T03:26:05.746Z,25.90
2018-05-25T03:28:34.634Z,26.57
2018-05-25T03:31:03.591Z,25.30
2018-05-25T03:33:31.860Z,26.83
2018-05-25T03:36:01.960Z,25.23
2018-05-25T03:38:30.592Z,25.43
2018-05-25T03:40:58.746Z,24.10
2018-05-25T03:43:27.001Z,27.50
2018-05-25T03:45:55.946Z,25.73
2018-05-25T03:48:24.342Z,26.00
2018-05-25T03:50:52.534Z,25.27
2018-05-25T03:53:21.429Z,23.30
2018-05-25T03:55:49.955Z,25.03
2018-05-25T03:58:19.421Z,24.30
2018-05-25T04:01:00.064Z,26.17
2018-05-25T04:03:28.693Z,25.50
2018-05-25T04:05:58.889Z,25.40
2018-05-25T04:08:27.520Z,26.00
2018-05-25T04:10:56.359Z,31.27
2018-05-25T04:13:25.721Z,30.07
2018-05-25T04:15:54.141Z,27.23
2018-05-25T04:18:22.563Z,27.77
2018-05-25T04:20:50.947Z,26.43
2018-05-25T04:23:19.405Z,28.20
2018-05-25T04:25:47.827Z,26.03
2018-05-25T04:28:16.978Z,29.53
2018-05-25T04:30:45.715Z,30.10
2018-05-25T04:33:14.544Z,29.43
2018-05-25T04:35:42.748Z,33.43
2018-05-25T04:38:10.922Z,28.80
2018-05-25T04:40:39.398Z,33.20
2018-05-25T04:43:07.567Z,29.53
2018-05-25T04:45:35.814Z,27.10
2018-05-25T04:48:04.453Z,30.07
2018-05-25T04:50:32.604Z,30.57
2018-05-25T04:53:00.794Z,31.63
2018-05-25T04:55:30.147Z,29.93
2018-05-25T04:57:59.566Z,29.63
2018-05-25T05:00:27.750Z,30.30
2018-05-25T05:02:56.965Z,29.50
2018-05-25T05:05:25.559Z,29.57
2018-05-25T05:07:54.106Z,29.83
2018-05-25T05:10:22.751Z,29.30
2018-05-25T05:12:51.163Z,30.53
2018-05-25T05:15:19.593Z,31.17
2018-05-25T05:17:48.537Z,30.17
2018-05-25T05:20:16.738Z,31.37
2018-05-25T05:22:46.215Z,30.27
2018-05-25T05:25:15.786Z,27.47
2018-05-25T05:27:44.823Z,27.57
2018-05-25T05:30:13.464Z,27.10
2018-05-25T05:32:41.618Z,26.03
2018-05-25T05:35:10.306Z,28.90
2018-05-25T05:37:38.463Z,26.83
2018-05-25T05:40:08.078Z,28.50
2018-05-25T05:42:36.316Z,25.13
2018-05-25T05:45:04.767Z,27.20
2018-05-25T05:47:33.457Z,24.57
2018-05-25T05:50:01.610Z,24.10
2018-05-25T05:52:30.090Z,24.17
2018-05-25T05:54:59.022Z,22.27
2018-05-25T05:57:27.626Z,21.70
2018-05-25T05:59:56.816Z,20.23
2018-05-25T06:02:26.010Z,19.17
2018-05-25T06:04:54.255Z,18.67
2018-05-25T06:07:23.333Z,19.23
2018-05-25T06:09:51.859Z,18.67
2018-05-25T06:12:20.460Z,18.73
2018-05-25T06:14:48.638Z,17.87
2018-05-25T06:17:17.331Z,17.83
2018-05-25T06:19:46.470Z,19.07
2018-05-25T06:22:15.021Z,17.13
2018-05-25T06:24:43.394Z,17.10
2018-05-25T06:27:12.582Z,18.20
2018-05-25T06:29:41.567Z,17.63
2018-05-25T06:32:10.642Z,17.87
2018-05-25T06:34:39.203Z,19.73
2018-05-25T06:37:07.730Z,21.30
2018-05-25T06:39:36.360Z,18.90
2018-05-25T06:42:04.990Z,17.87
2018-05-25T06:44:34.797Z,19.80
2018-05-25T06:47:03.296Z,20.17
2018-05-25T06:49:31.467Z,19.17
2018-05-25T06:52:00.033Z,18.50
2018-05-25T06:54:28.418Z,18.57
2018-05-25T06:56:57.189Z,19.30
2018-05-25T06:59:25.819Z,18.13
2018-05-25T07:01:54.449Z,17.90
2018-05-25T07:04:22.871Z,17.20
2018-05-25T07:06:51.339Z,18.60
2018-05-25T07:09:20.118Z,19.10
2018-05-25T07:11:48.622Z,19.90
2018-05-25T07:14:17.042Z,19.93
2018-05-25T07:16:45.246Z,18.07
2018-05-25T07:19:13.679Z,17.97
2018-05-25T07:21:42.345Z,16.93
2018-05-25T07:24:10.509Z,17.47
2018-05-25T07:26:39.590Z,16.57
2018-05-25T07:29:08.743Z,17.73
2018-05-25T07:31:37.280Z,16.80
2018-05-25T07:34:05.442Z,17.23
2018-05-25T07:36:34.020Z,15.40
2018-05-25T07:39:02.210Z,16.23
2018-05-25T07:41:31.073Z,16.10
2018-05-25T07:44:00.535Z,15.17
2018-05-25T07:46:28.956Z,16.63
2018-05-25T07:48:57.586Z,15.97
2018-05-25T07:51:25.770Z,14.83
2018-05-25T07:53:54.324Z,16.37
2018-05-25T07:56:23.467Z,15.20
2018-05-25T07:58:53.360Z,12.67
2018-05-25T08:01:21.990Z,17.47
2018-05-25T08:03:50.178Z,14.73
2018-05-25T08:06:19.168Z,15.50
2018-05-25T08:08:48.090Z,14.70
2018-05-25T08:11:16.511Z,16.27
2018-05-25T08:13:45.838Z,16.80
2018-05-25T08:16:14.920Z,15.30
2018-05-25T08:18:43.445Z,16.90
2018-05-25T08:21:12.076Z,15.20
2018-05-25T08:23:40.230Z,14.03
2018-05-25T08:26:09.326Z,14.70
2018-05-25T08:28:37.757Z,13.33
2018-05-25T08:31:06.179Z,16.20
2018-05-25T08:33:35.318Z,13.60
2018-05-25T08:36:04.274Z,16.43
2018-05-25T08:38:34.435Z,14.83
2018-05-25T08:41:04.982Z,13.53
2018-05-25T08:43:34.582Z,11.73
2018-05-25T08:46:03.799Z,14.93
2018-05-25T08:48:32.951Z,15.03
2018-05-25T08:51:02.426Z,14.23
2018-05-25T08:53:31.266Z,12.67
2018-05-25T08:55:59.709Z,13.23
2018-05-25T08:58:28.212Z,15.07
2018-05-25T09:00:56.494Z,14.67
2018-05-25T09:03:25.158Z,14.13
2018-05-25T09:05:54.299Z,13.83
2018-05-25T09:08:23.950Z,13.47
2018-05-25T09:10:53.121Z,12.70
2018-05-25T09:13:21.560Z,13.60
2018-05-25T09:15:49.743Z,13.20
2018-05-25T09:18:18.193Z,14.27
2018-05-25T09:20:47.032Z,13.93
2018-05-25T09:23:15.453Z,14.17
2018-05-25T09:25:44.643Z,12.73
2018-05-25T09:28:14.071Z,13.63
2018-05-25T09:30:44.674Z,12.90
2018-05-25T09:33:14.360Z,15.20
2018-05-25T09:35:43.728Z,14.07
2018-05-25T09:38:12.457Z,13.00
2018-05-25T09:40:40.642Z,11.30
2018-05-25T09:43:09.810Z,11.60
2018-05-25T09:45:38.454Z,11.57
2018-05-25T09:48:08.022Z,11.27
2018-05-25T09:50:36.287Z,12.23
2018-05-25T09:53:04.968Z,11.87
2018-05-25T09:55:35.259Z,10.97
2018-05-25T09:58:05.258Z,12.97
2018-05-25T10:00:34.294Z,11.50
2018-05-25T10:03:03.353Z,12.03
2018-05-25T10:05:31.775Z,11.50
2018-05-25T10:08:00.316Z,11.70
2018-05-25T10:10:29.337Z,11.53
2018-05-25T10:12:58.495Z,13.17
2018-05-25T10:15:26.675Z,10.37
2018-05-25T10:17:55.278Z,11.70
2018-05-25T10:20:23.651Z,11.73
2018-05-25T10:22:53.439Z,11.20
2018-05-25T10:25:22.696Z,9.23
2018-05-25T10:27:51.326Z,9.20
2018-05-25T10:30:19.498Z,12.63
2018-05-25T10:32:48.586Z,10.50
2018-05-25T10:35:17.730Z,10.70
2018-05-25T10:37:46.369Z,8.27
2018-05-25T10:40:14.965Z,8.37
2018-05-25T10:42:43.143Z,9.03
2018-05-25T10:45:11.950Z,10.97
2018-05-25T10:47:40.999Z,8.63
2018-05-25T10:50:09.418Z,9.63
2018-05-25T10:52:37.619Z,8.83
2018-05-25T10:55:07.498Z,10.20
2018-05-25T10:57:36.047Z,9.57
2018-05-25T11:00:04.222Z,9.33
2018-05-25T11:02:33.138Z,10.30
2018-05-25T11:05:01.279Z,11.33
2018-05-25T11:07:30.103Z,9.83
2018-05-25T11:09:58.789Z,11.07
2018-05-25T11:12:27.296Z,10.57
2018-05-25T11:14:56.447Z,10.40
2018-05-25T11:17:25.078Z,10.10
2018-05-25T11:19:53.500Z,10.30
2018-05-25T11:22:22.094Z,11.67
2018-05-25T11:24:51.281Z,10.33
2018-05-25T11:27:19.806Z,10.40
2018-05-25T11:29:48.333Z,10.00
2018-05-25T11:32:17.485Z,9.47
2018-05-25T11:34:46.459Z,9.87
2018-05-25T11:37:15.685Z,9.27
2018-05-25T11:39:44.315Z,10.53
2018-05-25T11:42:13.455Z,9.03
2018-05-25T11:44:42.620Z,8.53
2018-05-25T11:47:13.549Z,9.00
2018-05-25T11:49:41.690Z,8.83
2018-05-25T11:52:10.251Z,9.00
2018-05-25T11:54:38.426Z,7.93
2018-05-25T11:57:07.383Z,10.43
2018-05-25T11:59:35.930Z,9.27
2018-05-25T12:02:04.162Z,9.17
2018-05-25T12:04:32.398Z,9.30
2018-05-25T12:07:00.535Z,9.23
2018-05-25T12:09:29.539Z,8.53
2018-05-25T12:11:59.637Z,10.43
2018-05-25T12:14:28.886Z,9.20
2018-05-25T12:16:57.723Z,9.77
2018-05-25T12:19:26.975Z,9.33
2018-05-25T12:21:55.147Z,8.40
2018-05-25T12:24:24.358Z,9.30
2018-05-25T12:26:52.561Z,9.77
2018-05-25T12:29:21.607Z,9.43
2018-05-25T12:31:50.144Z,8.33
2018-05-25T12:34:19.283Z,9.20
2018-05-25T12:36:47.486Z,8.07
2018-05-25T12:39:15.658Z,8.00
2018-05-25T12:41:44.759Z,9.30
2018-05-25T12:44:13.363Z,7.67
2018-05-25T12:46:41.996Z,10.00
2018-05-25T12:49:10.175Z,9.90
2018-05-25T12:51:38.378Z,7.87
2018-05-25T12:54:07.383Z,9.17
2018-05-25T12:56:35.572Z,8.33
2018-05-25T12:59:04.240Z,9.17
2018-05-25T13:01:33.393Z,10.90
2018-05-25T13:04:02.544Z,12.77
2018-05-25T13:06:31.801Z,9.17
2018-05-25T13:09:00.432Z,10.07
2018-05-25T13:11:28.958Z,8.07
2018-05-25T13:13:57.203Z,9.70
2018-05-25T13:16:27.018Z,7.70
2018-05-25T13:18:57.145Z,9.50
2018-05-25T13:21:25.567Z,9.07
2018-05-25T13:23:54.197Z,7.57
2018-05-25T13:26:22.827Z,8.23
2018-05-25T13:28:51.317Z,9.83
2018-05-25T13:31:19.878Z,10.73
2018-05-25T13:33:48.300Z,10.40
2018-05-25T13:36:16.825Z,9.30
2018-05-25T13:38:46.490Z,8.80
2018-05-25T13:41:15.652Z,8.13
2018-05-25T13:43:44.283Z,9.33
2018-05-25T13:46:12.423Z,8.13
2018-05-25T13:48:41.650Z,6.97
2018-05-25T13:51:10.278Z,7.20
2018-05-25T13:53:38.870Z,6.97
2018-05-25T13:56:07.329Z,5.67
2018-05-25T13:58:37.290Z,6.90
2018-05-25T14:01:05.807Z,9.63
2018-05-25T14:03:34.175Z,7.30
2018-05-25T14:06:03.102Z,6.47
2018-05-25T14:08:31.274Z,5.93
2018-05-25T14:11:00.770Z,6.43
2018-05-25T14:13:29.411Z,5.93
2018-05-25T14:15:57.551Z,7.37
2018-05-25T14:18:26.219Z,5.70
2018-05-25T14:20:54.675Z,7.83
2018-05-25T14:23:23.370Z,7.03
2018-05-25T14:25:51.550Z,10.50
2018-05-25T14:28:20.044Z,6.70
2018-05-25T14:30:49.183Z,7.50
2018-05-25T14:33:18.348Z,7.47
2018-05-25T14:35:46.874Z,7.73
2018-05-25T14:38:16.506Z,7.10
2018-05-25T14:40:45.039Z,7.53
2018-05-25T14:43:13.458Z,7.73
2018-05-25T14:45:41.978Z,7.70
2018-05-25T14:48:11.068Z,7.13
2018-05-25T14:50:39.699Z,8.97
2018-05-25T14:53:08.919Z,7.27
2018-05-25T14:55:37.587Z,7.17
2018-05-25T14:58:06.070Z,7.20
2018-05-25T15:00:35.458Z,9.50
2018-05-25T15:03:03.999Z,8.57
2018-05-25T15:05:32.934Z,10.10
2018-05-25T15:08:02.823Z,7.57
2018-05-25T15:10:31.001Z,6.50
2018-05-25T15:12:59.655Z,7.27
2018-05-25T15:15:28.055Z,7.00
2018-05-25T15:17:56.719Z,7.23
2018-05-25T15:20:24.898Z,6.43
2018-05-25T15:22:53.456Z,11.07
2018-05-25T15:25:22.610Z,7.37
2018-05-25T15:27:51.099Z,6.60
2018-05-25T15:30:19.278Z,6.70
2018-05-25T15:32:48.069Z,7.80
2018-05-25T15:35:16.594Z,7.67
2018-05-25T15:37:45.238Z,7.07
2018-05-25T15:40:13.868Z,11.90
2018-05-25T15:42:42.695Z,9.17
2018-05-25T15:45:13.533Z,8.73
2018-05-25T15:47:42.022Z,7.00
2018-05-25T15:50:10.686Z,9.90
2018-05-25T15:52:39.945Z,10.00
2018-05-25T15:55:08.366Z,8.60
2018-05-25T15:57:37.621Z,9.77
2018-05-25T16:00:06.867Z,7.50
2018-05-25T16:02:35.405Z,7.63
2018-05-25T16:05:03.930Z,7.80
2018-05-25T16:07:32.839Z,7.93
2018-05-25T16:10:02.026Z,8.23
2018-05-25T16:12:30.191Z,7.17
2018-05-25T16:14:59.600Z,7.40
2018-05-25T16:17:28.229Z,7.00
2018-05-25T16:19:56.378Z,6.10
2018-05-25T16:22:25.072Z,8.10
2018-05-25T16:24:53.492Z,8.97
2018-05-25T16:27:22.125Z,6.73
2018-05-25T16:29:50.266Z,6.80
2018-05-25T16:32:19.492Z,7.33
2018-05-25T16:34:47.879Z,8.30
2018-05-25T16:37:16.943Z,5.57
2018-05-25T16:39:45.743Z,6.47
2018-05-25T16:42:13.970Z,7.10
2018-05-25T16:44:42.150Z,6.50
2018-05-25T16:47:10.753Z,6.40
2018-05-25T16:49:39.272Z,7.70
2018-05-25T16:52:07.406Z,6.30
2018-05-25T16:54:36.078Z,5.43
2018-05-25T16:57:04.939Z,6.43
2018-05-25T16:59:34.091Z,5.40
2018-05-25T17:02:02.531Z,5.60
2018-05-25T17:04:31.158Z,6.00
2018-05-25T17:06:59.578Z,6.23
2018-05-25T17:09:29.350Z,6.40
2018-05-25T17:11:57.848Z,6.60
2018-05-25T17:14:26.618Z,10.57
2018-05-25T17:16:55.875Z,9.37
2018-05-25T17:19:24.014Z,6.97
2018-05-25T17:21:52.963Z,7.47
2018-05-25T17:24:21.518Z,6.73
2018-05-25T17:26:50.082Z,6.87
2018-05-25T17:29:19.234Z,7.83
2018-05-25T17:31:47.760Z,7.03
2018-05-25T17:34:16.181Z,6.27
2018-05-25T17:36:45.333Z,7.10
2018-05-25T17:39:13.964Z,6.77
2018-05-25T17:41:42.105Z,7.83
2018-05-25T17:44:11.537Z,5.80
2018-05-25T17:46:40.131Z,5.83
2018-05-25T17:49:08.693Z,6.60
2018-05-25T17:51:36.842Z,6.90
2018-05-25T17:54:07.102Z,7.90
2018-05-25T17:56:35.524Z,7.13
2018-05-25T17:59:04.154Z,6.60
2018-05-25T18:01:32.575Z,8.37
2018-05-25T18:04:01.507Z,7.57
2018-05-25T18:06:31.582Z,9.40
2018-05-25T18:09:00.201Z,8.70
2018-05-25T18:11:29.382Z,6.20
2018-05-25T18:13:57.815Z,7.23
2018-05-25T18:16:26.855Z,6.10
2018-05-25T18:18:56.734Z,6.07
2018-05-25T18:21:25.168Z,6.13
2018-05-25T18:23:53.383Z,7.63
2018-05-25T18:26:22.414Z,5.93
2018-05-25T18:28:52.588Z,6.43
2018-05-25T18:31:21.974Z,6.17
2018-05-25T18:33:51.874Z,6.10
2018-05-25T18:36:20.694Z,7.60
2018-05-25T18:38:48.891Z,7.73
2018-05-25T18:41:17.447Z,5.50
2018-05-25T18:43:45.972Z,8.20
2018-05-25T18:46:15.111Z,7.37
2018-05-25T18:48:43.295Z,5.70
2018-05-25T18:51:11.931Z,7.13
2018-05-25T18:53:41.213Z,5.93
2018-05-25T18:56:10.690Z,8.07
2018-05-25T18:58:39.722Z,6.53
2018-05-25T19:01:09.065Z,5.67
2018-05-25T19:03:37.246Z,5.83
2018-05-25T19:06:05.733Z,7.77
2018-05-25T19:08:33.879Z,5.50
2018-05-25T19:11:02.146Z,5.93
2018-05-25T19:13:30.579Z,5.77
2018-05-25T19:15:59.509Z,5.70
2018-05-25T19:18:29.397Z,6.37
2018-05-25T19:20:58.035Z,8.17
2018-05-25T19:23:26.182Z,5.47
2018-05-25T19:25:55.296Z,6.07
2018-05-25T19:28:23.926Z,6.60
2018-05-25T19:30:52.623Z,5.27
2018-05-25T19:33:21.339Z,5.73
2018-05-25T19:35:49.922Z,5.80
2018-05-25T19:38:18.067Z,6.07
2018-05-25T19:40:47.271Z,5.80
2018-05-25T19:43:15.916Z,6.87
2018-05-25T19:45:44.088Z,7.33
2018-05-25T19:48:12.242Z,6.17
2018-05-25T19:50:40.764Z,5.20
2018-05-25T19:53:09.810Z,6.43
2018-05-25T19:55:38.544Z,6.10
2018-05-25T19:58:06.943Z,6.67
2018-05-25T20:00:36.079Z,8.13
2018-05-25T20:03:06.723Z,6.17
2018-05-25T20:05:35.862Z,6.00
2018-05-25T20:08:05.350Z,7.63
2018-05-25T20:10:33.777Z,6.57
2018-05-25T20:13:02.696Z,7.83
2018-05-25T20:15:30.866Z,7.17
2018-05-25T20:18:00.591Z,7.73
2018-05-25T20:20:29.755Z,7.03
2018-05-25T20:22:58.687Z,6.03
2018-05-25T20:25:27.734Z,6.90
2018-05-25T20:27:57.802Z,6.80
2018-05-25T20:30:26.034Z,8.20
2018-05-25T20:32:54.577Z,8.07
2018-05-25T20:35:23.714Z,6.67
2018-05-25T20:37:52.659Z,7.57
2018-05-25T20:40:21.499Z,6.70
2018-05-25T20:42:50.037Z,7.77
2018-05-25T20:45:18.876Z,7.33
2018-05-25T20:47:47.088Z,7.50
2018-05-25T20:50:16.121Z,8.60
2018-05-25T20:52:44.558Z,8.47
2018-05-25T20:55:13.695Z,6.53
2018-05-25T20:57:43.071Z,9.77
2018-05-25T21:00:11.795Z,10.90
2018-05-25T21:02:40.398Z,10.13
2018-05-25T21:05:09.274Z,7.43
2018-05-25T21:07:38.429Z,9.23
2018-05-25T21:10:06.848Z,8.27
2018-05-25T21:12:35.269Z,7.87
2018-05-25T21:15:04.945Z,8.67
2018-05-25T21:17:34.097Z,8.23
2018-05-25T21:20:02.727Z,9.90
2018-05-25T21:22:31.567Z,9.67
2018-05-25T21:25:00.101Z,9.47
2018-05-25T21:27:28.722Z,9.17
2018-05-25T21:29:56.863Z,9.80
2018-05-25T21:32:26.609Z,8.60
2018-05-25T21:34:55.029Z,9.03
2018-05-25T21:37:23.556Z,10.83
2018-05-25T21:39:52.290Z,8.70
2018-05-25T21:42:20.817Z,10.40
2018-05-25T21:44:48.959Z,8.93
2018-05-25T21:47:17.450Z,9.23
2018-05-25T21:49:46.278Z,9.87
2018-05-25T21:52:14.782Z,11.13
2018-05-25T21:54:42.965Z,13.77
2018-05-25T21:57:11.151Z,10.43
2018-05-25T21:59:40.601Z,9.83
2018-05-25T22:02:09.738Z,9.63
2018-05-25T22:04:39.323Z,9.13
2018-05-25T22:07:07.745Z,9.53
2018-05-25T22:09:36.375Z,10.53
2018-05-25T22:12:04.758Z,11.07
2018-05-25T22:14:33.188Z,10.63
2018-05-25T22:17:01.814Z,9.63
2018-05-25T22:19:30.002Z,11.47
2018-05-25T22:21:59.201Z,9.53
2018-05-25T22:24:27.842Z,11.53
2018-05-25T22:26:56.890Z,13.40
2018-05-25T22:29:25.070Z,10.97
2018-05-25T22:31:53.694Z,9.93
2018-05-25T22:34:22.326Z,11.20
2018-05-25T22:36:51.558Z,10.90
2018-05-25T22:39:20.654Z,10.50
2018-05-25T22:41:58.371Z,12.47
2018-05-25T22:44:39.028Z,13.03
2018-05-25T22:47:19.859Z,10.57
2018-05-25T22:50:00.518Z,11.13
2018-05-25T22:52:45.302Z,11.70
2018-05-25T22:55:15.212Z,13.40
2018-05-25T22:57:43.956Z,13.77
2018-05-25T23:00:12.593Z,15.53
2018-05-25T23:02:41.414Z,12.40
2018-05-25T23:05:10.892Z,12.27
2018-05-25T23:07:39.038Z,13.47
2018-05-25T23:10:08.139Z,11.93
2018-05-25T23:12:36.647Z,13.10
2018-05-25T23:15:05.505Z,15.43
2018-05-25T23:17:33.690Z,10.67
2018-05-25T23:20:02.672Z,12.57
2018-05-25T23:22:30.845Z,12.20
2018-05-25T23:24:59.410Z,12.73
2018-05-25T23:27:27.577Z,12.40
2018-05-25T23:29:56.727Z,11.33
2018-05-25T23:32:25.513Z,12.17
2018-05-25T23:34:54.663Z,12.33
2018-05-25T23:37:23.605Z,11.70
2018-05-25T23:39:52.130Z,12.33
2018-05-25T23:42:20.656Z,11.27
2018-05-25T23:44:49.799Z,11.83
2018-05-25T23:47:18.218Z,11.50
2018-05-25T23:49:46.861Z,13.27
2018-05-25T23:52:16.012Z,11.07
2018-05-25T23:54:44.434Z,11.47
2018-05-25T23:57:12.595Z,12.63
2018-05-25T23:59:40.778Z,12.50
